sensor_id;sensor_type;location;lat;lon;timestamp;P1;durP1;ratioP1;P2;durP2;ratioP2
3567;SDS011;1798;48.486;9.232;2023-05-16T00:01:57;15.70;;;7.10;;
3567;SDS011;1798;48.486;9.232;2023-05-16T00:04:24;16.30;;;7.20;;
3567;SDS011;1798;48.486;9.232;2023-05-16T00:06:51;17.27;;;6.67;;
3567;SDS011;1798;48.486;9.232;2023-05-16T00:09:18;20.63;;;7.77;;
3567;SDS011;1798;48.486;9.232;2023-05-16T00:11:44;9.50;;;5.77;;
3567;SDS011;1798;48.486;9.232;2023-05-16T00:14:13;12.57;;;6.73;;
3567;SDS011;1798;48.486;9.232;2023-05-16T00:16:40;16.40;;;7.70;;
3567;SDS011;1798;48.486;9.232;2023-05-16T00:19:07;11.10;;;6.77;;
3567;SDS011;1798;48.486;9.232;2023-05-16T00:21:34;18.47;;;7.93;;
3567;SDS011;1798;48.486;9.232;2023-05-16T00:24:00;9.80;;;6.13;;
3567;SDS011;1798;48.486;9.232;2023-05-16T00:26:28;12.47;;;6.00;;
3567;SDS011;1798;48.486;9.232;2023-05-16T00:28:55;9.80;;;6.10;;
3567;SDS011;1798;48.486;9.232;2023-05-16T00:31:23;31.03;;;6.53;;
3567;SDS011;1798;48.486;9.232;2023-05-16T00:33:50;9.57;;;6.43;;
3567;SDS011;1798;48.486;9.232;2023-05-16T00:36:16;10.57;;;6.60;;
3567;SDS011;1798;48.486;9.232;2023-05-16T00:38:43;11.37;;;6.03;;
3567;SDS011;1798;48.486;9.232;2023-05-16T00:41:10;15.60;;;6.10;;
3567;SDS011;1798;48.486;9.232;2023-05-16T00:43:37;15.03;;;6.80;;
3567;SDS011;1798;48.486;9.232;2023-05-16T00:46:04;10.87;;;6.47;;
3567;SDS011;1798;48.486;9.232;2023-05-16T00:48:33;10.13;;;6.17;;
3567;SDS011;1798;48.486;9.232;2023-05-16T00:51:00;12.13;;;7.20;;
3567;SDS011;1798;48.486;9.232;2023-05-16T00:53:27;14.37;;;6.40;;
3567;SDS011;1798;48.486;9.232;2023-05-16T00:55:55;32.30;;;6.43;;
3567;SDS011;1798;48.486;9.232;2023-05-16T00:58:21;11.10;;;7.20;;
3567;SDS011;1798;48.486;9.232;2023-05-16T01:00:48;10.07;;;6.00;;
3567;SDS011;1798;48.486;9.232;2023-05-16T01:03:15;15.07;;;6.20;;
3567;SDS011;1798;48.486;9.232;2023-05-16T01:05:43;25.53;;;5.60;;
3567;SDS011;1798;48.486;9.232;2023-05-16T01:08:11;13.30;;;6.00;;
3567;SDS011;1798;48.486;9.232;2023-05-16T01:10:38;15.80;;;5.90;;
3567;SDS011;1798;48.486;9.232;2023-05-16T01:13:11;10.27;;;6.67;;
3567;SDS011;1798;48.486;9.232;2023-05-16T01:15:42;10.50;;;6.30;;
3567;SDS011;1798;48.486;9.232;2023-05-16T01:18:14;8.40;;;5.93;;
3567;SDS011;1798;48.486;9.232;2023-05-16T01:20:48;11.67;;;6.17;;
3567;SDS011;1798;48.486;9.232;2023-05-16T01:23:24;11.27;;;6.70;;
3567;SDS011;1798;48.486;9.232;2023-05-16T01:28:46;9.30;;;6.20;;
3567;SDS011;1798;48.486;9.232;2023-05-16T01:31:14;8.67;;;5.70;;
3567;SDS011;1798;48.486;9.232;2023-05-16T01:33:41;10.07;;;5.50;;
3567;SDS011;1798;48.486;9.232;2023-05-16T01:36:10;11.37;;;5.70;;
3567;SDS011;1798;48.486;9.232;2023-05-16T01:38:40;16.90;;;6.50;;
3567;SDS011;1798;48.486;9.232;2023-05-16T01:41:12;12.10;;;6.60;;
3567;SDS011;1798;48.486;9.232;2023-05-16T01:43:45;13.37;;;5.83;;
3567;SDS011;1798;48.486;9.232;2023-05-16T01:46:14;10.40;;;6.90;;
3567;SDS011;1798;48.486;9.232;2023-05-16T01:48:50;9.27;;;6.00;;
3567;SDS011;1798;48.486;9.232;2023-05-16T01:51:20;20.57;;;6.90;;
3567;SDS011;1798;48.486;9.232;2023-05-16T01:53:48;13.40;;;6.00;;
3567;SDS011;1798;48.486;9.232;2023-05-16T01:56:15;12.67;;;6.53;;
3567;SDS011;1798;48.486;9.232;2023-05-16T01:58:43;15.63;;;6.00;;
3567;SDS011;1798;48.486;9.232;2023-05-16T02:01:12;22.53;;;6.87;;
3567;SDS011;1798;48.486;9.232;2023-05-16T02:03:38;29.03;;;6.60;;
3567;SDS011;1798;48.486;9.232;2023-05-16T02:06:05;15.83;;;6.83;;
3567;SDS011;1798;48.486;9.232;2023-05-16T02:08:32;8.53;;;5.90;;
3567;SDS011;1798;48.486;9.232;2023-05-16T02:10:59;9.00;;;6.03;;
3567;SDS011;1798;48.486;9.232;2023-05-16T02:13:26;16.17;;;6.57;;
3567;SDS011;1798;48.486;9.232;2023-05-16T02:15:54;18.63;;;7.90;;
3567;SDS011;1798;48.486;9.232;2023-05-16T02:18:20;14.20;;;8.00;;
3567;SDS011;1798;48.486;9.232;2023-05-16T02:20:47;14.10;;;7.43;;
3567;SDS011;1798;48.486;9.232;2023-05-16T02:23:14;11.97;;;6.60;;
3567;SDS011;1798;48.486;9.232;2023-05-16T02:25:41;11.17;;;7.13;;
3567;SDS011;1798;48.486;9.232;2023-05-16T02:28:08;10.70;;;7.33;;
3567;SDS011;1798;48.486;9.232;2023-05-16T02:30:35;12.27;;;9.00;;
3567;SDS011;1798;48.486;9.232;2023-05-16T02:33:03;12.83;;;8.27;;
3567;SDS011;1798;48.486;9.232;2023-05-16T02:35:30;43.10;;;10.70;;
3567;SDS011;1798;48.486;9.232;2023-05-16T02:37:56;23.70;;;11.93;;
3567;SDS011;1798;48.486;9.232;2023-05-16T02:40:23;20.80;;;13.27;;
3567;SDS011;1798;48.486;9.232;2023-05-16T02:42:50;21.63;;;14.67;;
3567;SDS011;1798;48.486;9.232;2023-05-16T02:45:16;14.90;;;9.40;;
3567;SDS011;1798;48.486;9.232;2023-05-16T02:47:43;22.33;;;11.90;;
3567;SDS011;1798;48.486;9.232;2023-05-16T02:50:11;16.13;;;10.70;;
3567;SDS011;1798;48.486;9.232;2023-05-16T02:52:38;33.13;;;10.63;;
3567;SDS011;1798;48.486;9.232;2023-05-16T02:55:05;23.40;;;13.77;;
3567;SDS011;1798;48.486;9.232;2023-05-16T02:57:33;24.30;;;12.73;;
3567;SDS011;1798;48.486;9.232;2023-05-16T02:59:59;27.10;;;14.30;;
3567;SDS011;1798;48.486;9.232;2023-05-16T03:02:26;22.80;;;14.93;;
3567;SDS011;1798;48.486;9.232;2023-05-16T03:04:53;21.97;;;12.77;;
3567;SDS011;1798;48.486;9.232;2023-05-16T03:07:21;17.67;;;12.27;;
3567;SDS011;1798;48.486;9.232;2023-05-16T03:09:48;18.93;;;13.20;;
3567;SDS011;1798;48.486;9.232;2023-05-16T03:12:15;16.53;;;11.77;;
3567;SDS011;1798;48.486;9.232;2023-05-16T03:14:42;30.93;;;11.27;;
3567;SDS011;1798;48.486;9.232;2023-05-16T03:17:08;19.03;;;10.80;;
3567;SDS011;1798;48.486;9.232;2023-05-16T03:19:35;16.00;;;10.77;;
3567;SDS011;1798;48.486;9.232;2023-05-16T03:22:02;13.50;;;9.60;;
3567;SDS011;1798;48.486;9.232;2023-05-16T03:24:30;13.73;;;9.53;;
3567;SDS011;1798;48.486;9.232;2023-05-16T03:26:57;13.70;;;8.57;;
3567;SDS011;1798;48.486;9.232;2023-05-16T03:29:24;14.53;;;7.73;;
3567;SDS011;1798;48.486;9.232;2023-05-16T03:31:51;13.63;;;7.90;;
3567;SDS011;1798;48.486;9.232;2023-05-16T03:34:18;17.77;;;7.60;;
3567;SDS011;1798;48.486;9.232;2023-05-16T03:36:46;16.50;;;8.10;;
3567;SDS011;1798;48.486;9.232;2023-05-16T03:39:13;11.43;;;7.80;;
3567;SDS011;1798;48.486;9.232;2023-05-16T03:41:41;13.70;;;6.97;;
3567;SDS011;1798;48.486;9.232;2023-05-16T03:44:08;16.27;;;7.83;;
3567;SDS011;1798;48.486;9.232;2023-05-16T03:46:35;12.00;;;8.27;;
3567;SDS011;1798;48.486;9.232;2023-05-16T03:49:02;16.37;;;7.77;;
3567;SDS011;1798;48.486;9.232;2023-05-16T03:51:29;20.20;;;8.63;;
3567;SDS011;1798;48.486;9.232;2023-05-16T03:53:55;19.87;;;9.10;;
3567;SDS011;1798;48.486;9.232;2023-05-16T03:56:22;20.67;;;8.77;;
3567;SDS011;1798;48.486;9.232;2023-05-16T03:58:52;12.30;;;8.60;;
3567;SDS011;1798;48.486;9.232;2023-05-16T04:01:18;17.10;;;9.50;;
3567;SDS011;1798;48.486;9.232;2023-05-16T04:03:45;17.03;;;9.00;;
3567;SDS011;1798;48.486;9.232;2023-05-16T04:06:12;17.27;;;10.10;;
3567;SDS011;1798;48.486;9.232;2023-05-16T04:08:39;18.40;;;10.07;;
3567;SDS011;1798;48.486;9.232;2023-05-16T04:11:08;28.57;;;11.90;;
3567;SDS011;1798;48.486;9.232;2023-05-16T04:13:36;18.97;;;12.53;;
3567;SDS011;1798;48.486;9.232;2023-05-16T04:16:04;20.80;;;12.80;;
3567;SDS011;1798;48.486;9.232;2023-05-16T04:18:31;29.20;;;14.30;;
3567;SDS011;1798;48.486;9.232;2023-05-16T04:20:58;22.13;;;14.10;;
3567;SDS011;1798;48.486;9.232;2023-05-16T04:23:25;22.30;;;14.43;;
3567;SDS011;1798;48.486;9.232;2023-05-16T04:25:52;26.53;;;15.73;;
3567;SDS011;1798;48.486;9.232;2023-05-16T04:28:19;28.73;;;16.37;;
3567;SDS011;1798;48.486;9.232;2023-05-16T04:30:46;36.07;;;15.47;;
3567;SDS011;1798;48.486;9.232;2023-05-16T04:33:14;21.30;;;15.30;;
3567;SDS011;1798;48.486;9.232;2023-05-16T04:35:42;31.13;;;16.80;;
3567;SDS011;1798;48.486;9.232;2023-05-16T04:38:09;31.40;;;17.07;;
3567;SDS011;1798;48.486;9.232;2023-05-16T04:40:36;28.63;;;18.50;;
3567;SDS011;1798;48.486;9.232;2023-05-16T04:43:04;29.97;;;18.10;;
3567;SDS011;1798;48.486;9.232;2023-05-16T04:45:32;35.50;;;21.17;;
3567;SDS011;1798;48.486;9.232;2023-05-16T04:47:59;66.20;;;22.13;;
3567;SDS011;1798;48.486;9.232;2023-05-16T04:50:27;31.43;;;19.10;;
3567;SDS011;1798;48.486;9.232;2023-05-16T04:52:54;26.77;;;15.90;;
3567;SDS011;1798;48.486;9.232;2023-05-16T04:55:21;42.37;;;25.00;;
3567;SDS011;1798;48.486;9.232;2023-05-16T04:57:47;51.83;;;26.70;;
3567;SDS011;1798;48.486;9.232;2023-05-16T05:00:14;48.57;;;25.33;;
3567;SDS011;1798;48.486;9.232;2023-05-16T05:02:42;58.13;;;35.17;;
3567;SDS011;1798;48.486;9.232;2023-05-16T05:05:09;24.47;;;13.70;;
3567;SDS011;1798;48.486;9.232;2023-05-16T05:07:38;55.57;;;25.67;;
3567;SDS011;1798;48.486;9.232;2023-05-16T05:10:05;63.47;;;34.40;;
3567;SDS011;1798;48.486;9.232;2023-05-16T05:12:33;17.17;;;11.50;;
3567;SDS011;1798;48.486;9.232;2023-05-16T05:15:00;27.30;;;16.30;;
3567;SDS011;1798;48.486;9.232;2023-05-16T05:17:27;16.30;;;9.60;;
3567;SDS011;1798;48.486;9.232;2023-05-16T05:19:54;43.47;;;24.63;;
3567;SDS011;1798;48.486;9.232;2023-05-16T05:22:21;62.13;;;36.47;;
3567;SDS011;1798;48.486;9.232;2023-05-16T05:24:49;65.40;;;34.97;;
3567;SDS011;1798;48.486;9.232;2023-05-16T05:27:15;43.17;;;24.40;;
3567;SDS011;1798;48.486;9.232;2023-05-16T05:29:42;78.47;;;42.30;;
3567;SDS011;1798;48.486;9.232;2023-05-16T05:32:09;64.63;;;39.57;;
3567;SDS011;1798;48.486;9.232;2023-05-16T05:34:36;39.40;;;23.80;;
3567;SDS011;1798;48.486;9.232;2023-05-16T05:37:03;59.37;;;36.23;;
3567;SDS011;1798;48.486;9.232;2023-05-16T05:39:30;23.30;;;13.47;;
3567;SDS011;1798;48.486;9.232;2023-05-16T05:41:58;40.10;;;22.90;;
3567;SDS011;1798;48.486;9.232;2023-05-16T05:44:27;31.07;;;18.17;;
3567;SDS011;1798;48.486;9.232;2023-05-16T05:46:54;82.03;;;39.30;;
3567;SDS011;1798;48.486;9.232;2023-05-16T05:49:21;79.23;;;43.93;;
3567;SDS011;1798;48.486;9.232;2023-05-16T05:51:48;74.07;;;43.30;;
3567;SDS011;1798;48.486;9.232;2023-05-16T05:54:16;82.87;;;44.40;;
3567;SDS011;1798;48.486;9.232;2023-05-16T05:56:43;81.33;;;45.60;;
3567;SDS011;1798;48.486;9.232;2023-05-16T05:59:11;107.27;;;46.27;;
3567;SDS011;1798;48.486;9.232;2023-05-16T06:01:38;71.87;;;43.00;;
3567;SDS011;1798;48.486;9.232;2023-05-16T06:04:05;80.53;;;46.10;;
3567;SDS011;1798;48.486;9.232;2023-05-16T06:06:31;69.00;;;39.20;;
3567;SDS011;1798;48.486;9.232;2023-05-16T06:08:58;69.13;;;38.57;;
3567;SDS011;1798;48.486;9.232;2023-05-16T06:11:25;82.53;;;41.90;;
3567;SDS011;1798;48.486;9.232;2023-05-16T06:13:52;94.37;;;48.10;;
3567;SDS011;1798;48.486;9.232;2023-05-16T06:16:22;71.13;;;41.67;;
3567;SDS011;1798;48.486;9.232;2023-05-16T06:18:49;64.00;;;39.27;;
3567;SDS011;1798;48.486;9.232;2023-05-16T06:21:16;88.63;;;45.97;;
3567;SDS011;1798;48.486;9.232;2023-05-16T06:23:43;82.50;;;44.60;;
3567;SDS011;1798;48.486;9.232;2023-05-16T06:26:09;77.63;;;43.63;;
3567;SDS011;1798;48.486;9.232;2023-05-16T06:28:36;64.07;;;40.07;;
3567;SDS011;1798;48.486;9.232;2023-05-16T06:31:03;68.60;;;35.50;;
3567;SDS011;1798;48.486;9.232;2023-05-16T06:33:31;77.60;;;45.60;;
3567;SDS011;1798;48.486;9.232;2023-05-16T06:35:58;100.47;;;46.07;;
3567;SDS011;1798;48.486;9.232;2023-05-16T06:38:25;78.97;;;45.40;;
3567;SDS011;1798;48.486;9.232;2023-05-16T06:40:52;90.80;;;41.33;;
3567;SDS011;1798;48.486;9.232;2023-05-16T06:43:19;85.00;;;42.90;;
3567;SDS011;1798;48.486;9.232;2023-05-16T06:45:45;69.27;;;38.40;;
3567;SDS011;1798;48.486;9.232;2023-05-16T06:48:12;79.83;;;43.70;;
3567;SDS011;1798;48.486;9.232;2023-05-16T06:50:45;78.20;;;43.60;;
3567;SDS011;1798;48.486;9.232;2023-05-16T06:53:12;77.33;;;42.37;;
3567;SDS011;1798;48.486;9.232;2023-05-16T06:55:39;66.17;;;37.90;;
3567;SDS011;1798;48.486;9.232;2023-05-16T06:58:06;94.17;;;43.87;;
3567;SDS011;1798;48.486;9.232;2023-05-16T07:00:33;67.03;;;38.03;;
3567;SDS011;1798;48.486;9.232;2023-05-16T07:02:59;72.67;;;42.20;;
3567;SDS011;1798;48.486;9.232;2023-05-16T07:05:26;72.93;;;43.77;;
3567;SDS011;1798;48.486;9.232;2023-05-16T07:07:54;76.13;;;41.40;;
3567;SDS011;1798;48.486;9.232;2023-05-16T07:10:21;70.27;;;38.83;;
3567;SDS011;1798;48.486;9.232;2023-05-16T07:12:48;63.30;;;38.43;;
3567;SDS011;1798;48.486;9.232;2023-05-16T07:15:15;87.17;;;42.90;;
3567;SDS011;1798;48.486;9.232;2023-05-16T07:17:42;63.70;;;37.07;;
3567;SDS011;1798;48.486;9.232;2023-05-16T07:20:08;65.13;;;37.93;;
3567;SDS011;1798;48.486;9.232;2023-05-16T07:22:38;76.93;;;41.00;;
3567;SDS011;1798;48.486;9.232;2023-05-16T07:25:07;62.27;;;37.37;;
3567;SDS011;1798;48.486;9.232;2023-05-16T07:27:36;71.20;;;38.90;;
3567;SDS011;1798;48.486;9.232;2023-05-16T07:30:05;74.03;;;42.90;;
3567;SDS011;1798;48.486;9.232;2023-05-16T07:32:33;79.13;;;41.83;;
3567;SDS011;1798;48.486;9.232;2023-05-16T07:35:00;59.53;;;36.80;;
3567;SDS011;1798;48.486;9.232;2023-05-16T07:37:27;84.37;;;39.67;;
3567;SDS011;1798;48.486;9.232;2023-05-16T07:39:54;60.10;;;35.87;;
3567;SDS011;1798;48.486;9.232;2023-05-16T07:42:23;61.73;;;38.83;;
3567;SDS011;1798;48.486;9.232;2023-05-16T07:44:50;58.20;;;36.00;;
3567;SDS011;1798;48.486;9.232;2023-05-16T07:47:16;62.17;;;37.00;;
3567;SDS011;1798;48.486;9.232;2023-05-16T07:49:43;61.80;;;36.70;;
3567;SDS011;1798;48.486;9.232;2023-05-16T07:52:10;63.87;;;36.50;;
3567;SDS011;1798;48.486;9.232;2023-05-16T07:54:37;86.47;;;39.37;;
3567;SDS011;1798;48.486;9.232;2023-05-16T07:57:04;61.67;;;37.47;;
3567;SDS011;1798;48.486;9.232;2023-05-16T07:59:32;56.87;;;32.00;;
3567;SDS011;1798;48.486;9.232;2023-05-16T08:01:59;54.47;;;31.97;;
3567;SDS011;1798;48.486;9.232;2023-05-16T08:04:26;61.80;;;33.43;;
3567;SDS011;1798;48.486;9.232;2023-05-16T08:06:52;56.77;;;34.37;;
3567;SDS011;1798;48.486;9.232;2023-05-16T08:09:19;54.07;;;33.57;;
3567;SDS011;1798;48.486;9.232;2023-05-16T08:11:46;54.77;;;33.40;;
3567;SDS011;1798;48.486;9.232;2023-05-16T08:14:13;56.83;;;33.23;;
3567;SDS011;1798;48.486;9.232;2023-05-16T08:16:41;66.07;;;34.07;;
3567;SDS011;1798;48.486;9.232;2023-05-16T08:19:07;53.40;;;32.00;;
3567;SDS011;1798;48.486;9.232;2023-05-16T08:21:34;54.23;;;31.83;;
3567;SDS011;1798;48.486;9.232;2023-05-16T08:24:01;54.90;;;32.47;;
3567;SDS011;1798;48.486;9.232;2023-05-16T08:26:29;49.87;;;30.40;;
3567;SDS011;1798;48.486;9.232;2023-05-16T08:28:56;48.17;;;33.33;;
3567;SDS011;1798;48.486;9.232;2023-05-16T08:31:23;51.43;;;31.47;;
3567;SDS011;1798;48.486;9.232;2023-05-16T08:33:51;62.57;;;35.43;;
3567;SDS011;1798;48.486;9.232;2023-05-16T08:36:18;52.93;;;32.20;;
3567;SDS011;1798;48.486;9.232;2023-05-16T08:38:44;58.00;;;31.73;;
3567;SDS011;1798;48.486;9.232;2023-05-16T08:41:11;54.53;;;30.70;;
3567;SDS011;1798;48.486;9.232;2023-05-16T08:43:38;54.53;;;34.27;;
3567;SDS011;1798;48.486;9.232;2023-05-16T08:46:05;59.57;;;32.17;;
3567;SDS011;1798;48.486;9.232;2023-05-16T08:48:32;49.00;;;31.50;;
3567;SDS011;1798;48.486;9.232;2023-05-16T08:51:01;47.87;;;29.70;;
3567;SDS011;1798;48.486;9.232;2023-05-16T08:53:30;53.33;;;32.00;;
3567;SDS011;1798;48.486;9.232;2023-05-16T08:55:58;45.90;;;28.80;;
3567;SDS011;1798;48.486;9.232;2023-05-16T08:58:25;38.07;;;24.70;;
3567;SDS011;1798;48.486;9.232;2023-05-16T09:00:54;52.70;;;31.13;;
3567;SDS011;1798;48.486;9.232;2023-05-16T09:03:20;49.43;;;28.57;;
3567;SDS011;1798;48.486;9.232;2023-05-16T09:05:49;48.37;;;31.23;;
3567;SDS011;1798;48.486;9.232;2023-05-16T09:08:18;45.77;;;28.13;;
3567;SDS011;1798;48.486;9.232;2023-05-16T09:10:44;36.37;;;21.70;;
3567;SDS011;1798;48.486;9.232;2023-05-16T09:13:11;36.17;;;22.93;;
3567;SDS011;1798;48.486;9.232;2023-05-16T09:15:39;41.13;;;26.60;;
3567;SDS011;1798;48.486;9.232;2023-05-16T09:18:10;29.57;;;20.20;;
3567;SDS011;1798;48.486;9.232;2023-05-16T09:20:37;35.37;;;23.47;;
3567;SDS011;1798;48.486;9.232;2023-05-16T09:23:10;32.83;;;22.93;;
3567;SDS011;1798;48.486;9.232;2023-05-16T09:25:38;31.87;;;20.87;;
3567;SDS011;1798;48.486;9.232;2023-05-16T09:28:05;34.80;;;22.47;;
3567;SDS011;1798;48.486;9.232;2023-05-16T09:30:35;35.00;;;20.50;;
3567;SDS011;1798;48.486;9.232;2023-05-16T09:33:05;30.70;;;20.50;;
3567;SDS011;1798;48.486;9.232;2023-05-16T09:35:32;50.30;;;23.33;;
3567;SDS011;1798;48.486;9.232;2023-05-16T09:37:58;28.93;;;19.40;;
3567;SDS011;1798;48.486;9.232;2023-05-16T09:40:25;56.37;;;22.00;;
3567;SDS011;1798;48.486;9.232;2023-05-16T09:43:00;35.40;;;22.17;;
3567;SDS011;1798;48.486;9.232;2023-05-16T09:45:27;33.33;;;20.73;;
3567;SDS011;1798;48.486;9.232;2023-05-16T09:47:57;31.17;;;20.20;;
3567;SDS011;1798;48.486;9.232;2023-05-16T09:50:26;37.83;;;24.50;;
3567;SDS011;1798;48.486;9.232;2023-05-16T09:52:53;33.40;;;22.17;;
3567;SDS011;1798;48.486;9.232;2023-05-16T09:55:20;41.13;;;25.07;;
3567;SDS011;1798;48.486;9.232;2023-05-16T09:57:48;35.13;;;20.70;;
3567;SDS011;1798;48.486;9.232;2023-05-16T10:00:17;38.17;;;24.37;;
3567;SDS011;1798;48.486;9.232;2023-05-16T10:02:44;34.40;;;21.90;;
3567;SDS011;1798;48.486;9.232;2023-05-16T10:05:11;36.33;;;23.20;;
3567;SDS011;1798;48.486;9.232;2023-05-16T10:07:38;39.37;;;22.70;;
3567;SDS011;1798;48.486;9.232;2023-05-16T10:10:06;31.47;;;20.00;;
3567;SDS011;1798;48.486;9.232;2023-05-16T10:12:35;36.23;;;22.33;;
3567;SDS011;1798;48.486;9.232;2023-05-16T10:15:03;36.60;;;23.17;;
3567;SDS011;1798;48.486;9.232;2023-05-16T10:17:33;43.83;;;24.67;;
3567;SDS011;1798;48.486;9.232;2023-05-16T10:20:01;42.67;;;25.77;;
3567;SDS011;1798;48.486;9.232;2023-05-16T10:22:32;44.90;;;27.00;;
3567;SDS011;1798;48.486;9.232;2023-05-16T10:25:03;44.83;;;23.87;;
3567;SDS011;1798;48.486;9.232;2023-05-16T10:27:36;51.23;;;22.37;;
3567;SDS011;1798;48.486;9.232;2023-05-16T10:30:04;47.73;;;26.60;;
3567;SDS011;1798;48.486;9.232;2023-05-16T10:32:33;42.70;;;25.90;;
3567;SDS011;1798;48.486;9.232;2023-05-16T10:35:01;37.57;;;24.90;;
3567;SDS011;1798;48.486;9.232;2023-05-16T10:37:29;39.70;;;27.40;;
3567;SDS011;1798;48.486;9.232;2023-05-16T10:39:56;42.00;;;23.30;;
3567;SDS011;1798;48.486;9.232;2023-05-16T10:42:23;33.77;;;23.10;;
3567;SDS011;1798;48.486;9.232;2023-05-16T10:44:52;42.47;;;25.57;;
3567;SDS011;1798;48.486;9.232;2023-05-16T10:47:20;36.70;;;25.40;;
3567;SDS011;1798;48.486;9.232;2023-05-16T10:49:48;38.63;;;26.20;;
3567;SDS011;1798;48.486;9.232;2023-05-16T10:52:15;38.83;;;27.00;;
3567;SDS011;1798;48.486;9.232;2023-05-16T10:54:42;33.17;;;24.73;;
3567;SDS011;1798;48.486;9.232;2023-05-16T10:57:15;37.10;;;24.83;;
3567;SDS011;1798;48.486;9.232;2023-05-16T10:59:45;36.93;;;26.10;;
3567;SDS011;1798;48.486;9.232;2023-05-16T11:02:23;44.13;;;26.23;;
3567;SDS011;1798;48.486;9.232;2023-05-16T11:04:54;44.27;;;25.77;;
3567;SDS011;1798;48.486;9.232;2023-05-16T11:07:23;45.37;;;25.33;;
3567;SDS011;1798;48.486;9.232;2023-05-16T11:10:04;40.93;;;26.50;;
3567;SDS011;1798;48.486;9.232;2023-05-16T11:12:35;39.10;;;26.43;;
3567;SDS011;1798;48.486;9.232;2023-05-16T11:15:18;42.67;;;26.07;;
3567;SDS011;1798;48.486;9.232;2023-05-16T11:17:46;42.20;;;25.90;;
3567;SDS011;1798;48.486;9.232;2023-05-16T11:20:28;41.70;;;25.40;;
3567;SDS011;1798;48.486;9.232;2023-05-16T11:25:46;44.90;;;28.40;;
3567;SDS011;1798;48.486;9.232;2023-05-16T11:28:14;40.20;;;27.07;;
3567;SDS011;1798;48.486;9.232;2023-05-16T11:30:42;38.83;;;25.43;;
3567;SDS011;1798;48.486;9.232;2023-05-16T11:33:10;44.33;;;29.50;;
3567;SDS011;1798;48.486;9.232;2023-05-16T11:35:39;39.07;;;25.80;;
3567;SDS011;1798;48.486;9.232;2023-05-16T11:38:10;38.93;;;25.67;;
3567;SDS011;1798;48.486;9.232;2023-05-16T11:40:40;45.33;;;27.47;;
3567;SDS011;1798;48.486;9.232;2023-05-16T11:43:08;44.83;;;26.37;;
3567;SDS011;1798;48.486;9.232;2023-05-16T11:45:35;40.27;;;25.10;;
3567;SDS011;1798;48.486;9.232;2023-05-16T11:48:02;39.40;;;26.43;;
3567;SDS011;1798;48.486;9.232;2023-05-16T11:50:30;35.43;;;24.10;;
3567;SDS011;1798;48.486;9.232;2023-05-16T11:53:01;41.77;;;27.70;;
3567;SDS011;1798;48.486;9.232;2023-05-16T11:55:30;55.60;;;27.40;;
3567;SDS011;1798;48.486;9.232;2023-05-16T11:57:58;42.67;;;26.27;;
3567;SDS011;1798;48.486;9.232;2023-05-16T12:00:26;58.80;;;32.93;;
3567;SDS011;1798;48.486;9.232;2023-05-16T12:02:53;47.00;;;29.60;;
3567;SDS011;1798;48.486;9.232;2023-05-16T12:05:20;44.03;;;28.37;;
3567;SDS011;1798;48.486;9.232;2023-05-16T12:07:51;52.07;;;29.73;;
3567;SDS011;1798;48.486;9.232;2023-05-16T12:10:20;45.30;;;27.33;;
3567;SDS011;1798;48.486;9.232;2023-05-16T12:12:47;38.20;;;24.23;;
3567;SDS011;1798;48.486;9.232;2023-05-16T12:15:17;43.13;;;27.90;;
3567;SDS011;1798;48.486;9.232;2023-05-16T12:17:44;43.10;;;26.17;;
3567;SDS011;1798;48.486;9.232;2023-05-16T12:20:11;42.63;;;25.33;;
3567;SDS011;1798;48.486;9.232;2023-05-16T12:22:38;36.97;;;24.90;;
3567;SDS011;1798;48.486;9.232;2023-05-16T12:25:21;43.73;;;27.50;;
3567;SDS011;1798;48.486;9.232;2023-05-16T12:27:52;36.00;;;24.73;;
3567;SDS011;1798;48.486;9.232;2023-05-16T12:30:20;38.50;;;25.97;;
3567;SDS011;1798;48.486;9.232;2023-05-16T12:32:51;39.13;;;24.70;;
3567;SDS011;1798;48.486;9.232;2023-05-16T12:35:18;56.60;;;26.40;;
3567;SDS011;1798;48.486;9.232;2023-05-16T12:37:45;46.40;;;26.40;;
3567;SDS011;1798;48.486;9.232;2023-05-16T12:40:12;44.20;;;25.27;;
3567;SDS011;1798;48.486;9.232;2023-05-16T12:42:40;35.70;;;24.17;;
3567;SDS011;1798;48.486;9.232;2023-05-16T12:45:13;39.90;;;24.47;;
3567;SDS011;1798;48.486;9.232;2023-05-16T12:47:41;40.10;;;23.70;;
3567;SDS011;1798;48.486;9.232;2023-05-16T12:50:08;35.30;;;24.53;;
3567;SDS011;1798;48.486;9.232;2023-05-16T12:52:44;33.97;;;22.17;;
3567;SDS011;1798;48.486;9.232;2023-05-16T12:55:12;34.13;;;21.80;;
3567;SDS011;1798;48.486;9.232;2023-05-16T12:57:41;38.93;;;23.07;;
3567;SDS011;1798;48.486;9.232;2023-05-16T13:00:09;29.97;;;21.13;;
3567;SDS011;1798;48.486;9.232;2023-05-16T13:02:38;32.93;;;21.87;;
3567;SDS011;1798;48.486;9.232;2023-05-16T13:05:04;36.73;;;23.30;;
3567;SDS011;1798;48.486;9.232;2023-05-16T13:07:32;36.07;;;20.63;;
3567;SDS011;1798;48.486;9.232;2023-05-16T13:09:59;38.77;;;23.63;;
3567;SDS011;1798;48.486;9.232;2023-05-16T13:12:26;43.00;;;23.37;;
3567;SDS011;1798;48.486;9.232;2023-05-16T13:14:54;32.07;;;20.17;;
3567;SDS011;1798;48.486;9.232;2023-05-16T13:17:21;30.50;;;19.50;;
3567;SDS011;1798;48.486;9.232;2023-05-16T13:19:48;38.47;;;20.50;;
3567;SDS011;1798;48.486;9.232;2023-05-16T13:22:15;39.53;;;22.87;;
3567;SDS011;1798;48.486;9.232;2023-05-16T13:24:42;38.90;;;18.97;;
3567;SDS011;1798;48.486;9.232;2023-05-16T13:27:08;32.93;;;19.50;;
3567;SDS011;1798;48.486;9.232;2023-05-16T13:29:35;31.83;;;16.80;;
3567;SDS011;1798;48.486;9.232;2023-05-16T13:32:03;33.17;;;20.23;;
3567;SDS011;1798;48.486;9.232;2023-05-16T13:34:31;30.80;;;22.37;;
3567;SDS011;1798;48.486;9.232;2023-05-16T13:36:58;41.77;;;20.50;;
3567;SDS011;1798;48.486;9.232;2023-05-16T13:39:25;35.90;;;19.23;;
3567;SDS011;1798;48.486;9.232;2023-05-16T13:41:52;28.23;;;20.63;;
3567;SDS011;1798;48.486;9.232;2023-05-16T13:44:18;26.43;;;16.97;;
3567;SDS011;1798;48.486;9.232;2023-05-16T13:46:46;31.07;;;20.50;;
3567;SDS011;1798;48.486;9.232;2023-05-16T13:49:14;22.67;;;16.10;;
3567;SDS011;1798;48.486;9.232;2023-05-16T13:51:40;40.13;;;21.77;;
3567;SDS011;1798;48.486;9.232;2023-05-16T13:54:07;34.37;;;19.47;;
3567;SDS011;1798;48.486;9.232;2023-05-16T13:56:34;31.90;;;19.87;;
3567;SDS011;1798;48.486;9.232;2023-05-16T13:59:01;28.07;;;17.30;;
3567;SDS011;1798;48.486;9.232;2023-05-16T14:01:27;32.43;;;17.67;;
3567;SDS011;1798;48.486;9.232;2023-05-16T14:03:54;39.87;;;16.50;;
3567;SDS011;1798;48.486;9.232;2023-05-16T14:06:23;32.73;;;20.03;;
3567;SDS011;1798;48.486;9.232;2023-05-16T14:08:49;27.60;;;17.90;;
3567;SDS011;1798;48.486;9.232;2023-05-16T14:11:16;31.20;;;17.60;;
3567;SDS011;1798;48.486;9.232;2023-05-16T14:13:44;26.80;;;13.90;;
3567;SDS011;1798;48.486;9.232;2023-05-16T14:16:10;28.13;;;18.23;;
3567;SDS011;1798;48.486;9.232;2023-05-16T14:18:37;33.97;;;14.03;;
3567;SDS011;1798;48.486;9.232;2023-05-16T14:21:04;21.33;;;8.63;;
3567;SDS011;1798;48.486;9.232;2023-05-16T14:23:32;17.60;;;9.40;;
3567;SDS011;1798;48.486;9.232;2023-05-16T14:25:59;12.43;;;7.27;;
3567;SDS011;1798;48.486;9.232;2023-05-16T14:28:26;17.90;;;8.97;;
3567;SDS011;1798;48.486;9.232;2023-05-16T14:30:53;22.30;;;10.07;;
3567;SDS011;1798;48.486;9.232;2023-05-16T14:33:20;14.43;;;9.70;;
3567;SDS011;1798;48.486;9.232;2023-05-16T14:35:48;16.30;;;9.87;;
3567;SDS011;1798;48.486;9.232;2023-05-16T14:38:14;19.23;;;8.70;;
3567;SDS011;1798;48.486;9.232;2023-05-16T14:40:42;12.00;;;8.10;;
3567;SDS011;1798;48.486;9.232;2023-05-16T14:43:09;11.10;;;6.90;;
3567;SDS011;1798;48.486;9.232;2023-05-16T14:45:36;12.33;;;7.40;;
3567;SDS011;1798;48.486;9.232;2023-05-16T14:48:04;14.50;;;8.07;;
3567;SDS011;1798;48.486;9.232;2023-05-16T14:50:31;16.90;;;9.30;;
3567;SDS011;1798;48.486;9.232;2023-05-16T14:52:58;17.20;;;10.33;;
3567;SDS011;1798;48.486;9.232;2023-05-16T14:55:25;17.03;;;8.90;;
3567;SDS011;1798;48.486;9.232;2023-05-16T14:57:53;18.53;;;7.87;;
3567;SDS011;1798;48.486;9.232;2023-05-16T15:00:22;13.27;;;7.80;;